Time;durP1;ratioP1;P1;durP2;ratioP2;P2;SDS_P1;SDS_P2;PMS_P1;PMS_P2;Temp;Humidity;BMP_temperature;BMP_pressure;BME280_temperature;BME280_humidity;BME280_pressure;Samples;Min_cycle;Max_cycle;Signal;HPM_P1;HPM_P2
2022/05/12 00:01:04;;;;;;;3.00;1.40;;;;;;;;;;5015440;28;20268;-62
2022/05/12 00:03:31;;;;;;;1.90;1.10;;;;;;;;;;5011941;28;20218;-62
2022/05/12 00:05:58;;;;;;;1.60;1.20;;;;;;;;;;5013784;28;20205;-62
2022/05/12 00:08:25;;;;;;;2.20;1.27;;;;;;;;;;5006937;28;20755;-62
2022/05/12 00:10:52;;;;;;;2.40;1.13;;;;;;;;;;5007466;28;20188;-62
2022/05/12 00:13:19;;;;;;;1.90;1.00;;;;;;;;;;5006146;28;20657;-63
2022/05/12 00:15:48;;;;;;;1.87;1.20;;;;;;;;;;5006016;28;20202;-63
2022/05/12 00:18:15;;;;;;;2.97;1.40;;;;;;;;;;5003521;28;20195;-63
2022/05/12 00:20:42;;;;;;;2.70;1.20;;;;;;;;;;5004291;28;20945;-63
2022/05/12 00:23:11;;;;;;;1.60;1.10;;;;;;;;;;5007827;28;20220;-63
2022/05/12 00:25:39;;;;;;;1.93;1.20;;;;;;;;;;5008048;28;20242;-63
2022/05/12 00:28:06;;;;;;;1.37;0.90;;;;;;;;;;4999134;28;20638;-63
2022/05/12 00:30:33;;;;;;;3.17;1.33;;;;;;;;;;5006098;28;20458;-63
2022/05/12 00:33:01;;;;;;;1.87;1.10;;;;;;;;;;5009989;28;20225;-62
2022/05/12 00:35:28;;;;;;;2.77;1.10;;;;;;;;;;5007017;28;20207;-63
2022/05/12 00:37:55;;;;;;;1.40;0.90;;;;;;;;;;5012623;28;20269;-63
2022/05/12 00:40:22;;;;;;;2.47;1.40;;;;;;;;;;5004446;28;20759;-63
2022/05/12 00:42:54;;;;;;;2.33;1.30;;;;;;;;;;5018421;28;20222;-63
2022/05/12 00:45:21;;;;;;;1.73;1.00;;;;;;;;;;5002239;28;20203;-63
2022/05/12 00:47:48;;;;;;;1.60;1.10;;;;;;;;;;5010387;28;20188;-63
2022/05/12 00:50:16;;;;;;;2.93;1.10;;;;;;;;;;5004636;28;20207;-63
2022/05/12 00:52:43;;;;;;;1.73;1.00;;;;;;;;;;5009441;28;20269;-63
2022/05/12 00:55:15;;;;;;;1.80;1.10;;;;;;;;;;5008923;28;20246;-63
2022/05/12 00:57:45;;;;;;;2.13;1.20;;;;;;;;;;5009651;28;20195;-62
2022/05/12 01:00:14;;;;;;;1.93;1.13;;;;;;;;;;5000088;28;20297;-62
2022/05/12 01:02:42;;;;;;;1.47;0.97;;;;;;;;;;5017027;28;20222;-63
2022/05/12 01:05:10;;;;;;;2.50;1.10;;;;;;;;;;5009332;28;20199;-62
2022/05/12 01:07:38;;;;;;;1.70;1.10;;;;;;;;;;4996788;28;20706;-62
2022/05/12 01:10:06;;;;;;;2.13;1.23;;;;;;;;;;5007729;28;20261;-62
2022/05/12 01:12:34;;;;;;;1.23;0.97;;;;;;;;;;5014555;28;20195;-62
2022/05/12 01:15:01;;;;;;;1.70;1.10;;;;;;;;;;5005802;28;20846;-62
2022/05/12 01:17:28;;;;;;;1.70;1.00;;;;;;;;;;5011576;28;20614;-62
2022/05/12 01:19:55;;;;;;;1.80;0.90;;;;;;;;;;5006736;28;20902;-63
2022/05/12 01:22:30;;;;;;;1.97;1.13;;;;;;;;;;5010006;28;20219;-63
2022/05/12 01:24:59;;;;;;;1.57;0.80;;;;;;;;;;5008080;28;20265;-63
2022/05/12 01:27:29;;;;;;;1.83;1.20;;;;;;;;;;5005821;28;20641;-63
2022/05/12 01:29:58;;;;;;;1.30;0.80;;;;;;;;;;5008364;28;20203;-62
2022/05/12 01:32:27;;;;;;;1.73;1.10;;;;;;;;;;5006229;28;20195;-63
2022/05/12 01:34:55;;;;;;;1.40;1.00;;;;;;;;;;5003575;28;20262;-63
2022/05/12 01:37:23;;;;;;;1.57;1.13;;;;;;;;;;5013408;28;20211;-63
2022/05/12 01:39:51;;;;;;;1.20;0.80;;;;;;;;;;5005637;28;20231;-63
2022/05/12 01:42:18;;;;;;;1.47;1.00;;;;;;;;;;5010351;28;20276;-63
2022/05/12 01:44:45;;;;;;;1.57;0.90;;;;;;;;;;5012209;28;20279;-63
2022/05/12 01:47:12;;;;;;;1.47;0.80;;;;;;;;;;5010593;28;20284;-63
2022/05/12 01:49:39;;;;;;;4.03;0.90;;;;;;;;;;5000942;28;20200;-63
2022/05/12 01:52:07;;;;;;;1.03;0.73;;;;;;;;;;4998869;28;20253;-62
2022/05/12 01:54:34;;;;;;;2.63;1.00;;;;;;;;;;5006374;28;20250;-62
2022/05/12 01:57:02;;;;;;;2.03;1.00;;;;;;;;;;5008799;28;20198;-63
2022/05/12 01:59:29;;;;;;;1.53;0.80;;;;;;;;;;5006956;28;20196;-62
2022/05/12 02:01:56;;;;;;;2.73;1.00;;;;;;;;;;5006490;28;20250;-63
2022/05/12 02:04:23;;;;;;;1.57;0.80;;;;;;;;;;5002978;28;20668;-63
2022/05/12 02:06:53;;;;;;;1.60;1.00;;;;;;;;;;5009500;28;20207;-63
2022/05/12 02:09:21;;;;;;;2.20;1.03;;;;;;;;;;5010919;28;20215;-62
2022/05/12 02:11:51;;;;;;;1.90;0.70;;;;;;;;;;4995946;28;20196;-63
2022/05/12 02:14:21;;;;;;;1.63;0.90;;;;;;;;;;5005397;28;20516;-62
2022/05/12 02:16:50;;;;;;;1.63;0.80;;;;;;;;;;5011415;28;20219;-62
2022/05/12 02:19:21;;;;;;;1.63;0.90;;;;;;;;;;5004698;28;20401;-63
2022/05/12 02:21:56;;;;;;;1.90;0.90;;;;;;;;;;5008940;28;20223;-62
2022/05/12 02:24:36;;;;;;;2.03;1.00;;;;;;;;;;5009346;28;20195;-63
2022/05/12 02:27:05;;;;;;;1.70;0.80;;;;;;;;;;5008852;28;20223;-63
2022/05/12 02:29:38;;;;;;;1.80;0.90;;;;;;;;;;5010199;28;20204;-63
2022/05/12 02:32:05;;;;;;;2.00;0.77;;;;;;;;;;5007770;28;20230;-63
2022/05/12 02:34:37;;;;;;;1.10;0.70;;;;;;;;;;5016442;28;20234;-63
2022/05/12 02:37:11;;;;;;;1.80;1.03;;;;;;;;;;5011362;28;20199;-63
2022/05/12 02:39:43;;;;;;;1.30;1.00;;;;;;;;;;5009217;28;20250;-63
2022/05/12 02:42:15;;;;;;;1.03;0.70;;;;;;;;;;5001653;28;20295;-62
2022/05/12 02:44:45;;;;;;;1.87;0.80;;;;;;;;;;4987745;28;20625;-62
2022/05/12 02:47:15;;;;;;;1.20;0.80;;;;;;;;;;4991961;28;20200;-63
2022/05/12 02:49:46;;;;;;;0.70;0.70;;;;;;;;;;5006167;28;20199;-63
2022/05/12 02:52:20;;;;;;;1.83;0.90;;;;;;;;;;5017259;28;20239;-62
2022/05/12 02:54:49;;;;;;;2.00;0.80;;;;;;;;;;5007204;28;20208;-62
2022/05/12 02:57:22;;;;;;;1.10;0.80;;;;;;;;;;5007485;28;20208;-62
2022/05/12 02:59:54;;;;;;;1.13;0.60;;;;;;;;;;5000853;28;20204;-62
2022/05/12 03:02:23;;;;;;;1.50;0.80;;;;;;;;;;4986449;28;20231;-63
2022/05/12 03:04:50;;;;;;;1.17;0.80;;;;;;;;;;4997545;28;20197;-62
2022/05/12 03:07:17;;;;;;;1.23;0.70;;;;;;;;;;5017670;28;20240;-62
2022/05/12 03:09:46;;;;;;;0.87;0.80;;;;;;;;;;5015446;28;20200;-62
2022/05/12 03:12:17;;;;;;;1.67;0.80;;;;;;;;;;5009488;28;20196;-62
2022/05/12 03:14:51;;;;;;;1.10;0.90;;;;;;;;;;5013338;28;20261;-63
2022/05/12 03:17:32;;;;;;;0.80;0.80;;;;;;;;;;5005405;28;20194;-62
2022/05/12 03:20:04;;;;;;;3.13;0.80;;;;;;;;;;5005859;28;20655;-62
2022/05/12 03:22:33;;;;;;;1.00;0.87;;;;;;;;;;5011042;28;20794;-62
2022/05/12 03:25:00;;;;;;;1.07;0.90;;;;;;;;;;4994864;28;20212;-62
2022/05/12 03:27:27;;;;;;;2.67;0.97;;;;;;;;;;5008547;28;20224;-62
2022/05/12 03:29:54;;;;;;;1.50;0.90;;;;;;;;;;5012397;28;20192;-62
2022/05/12 03:32:21;;;;;;;1.23;1.00;;;;;;;;;;5008853;28;20995;-62
2022/05/12 03:34:49;;;;;;;1.20;0.83;;;;;;;;;;5014353;28;20200;-62
2022/05/12 03:37:17;;;;;;;2.30;0.97;;;;;;;;;;5009955;28;20207;-62
2022/05/12 03:39:44;;;;;;;3.60;1.10;;;;;;;;;;5007031;28;20747;-62
2022/05/12 03:42:14;;;;;;;1.97;0.93;;;;;;;;;;5007529;28;20240;-61
2022/05/12 03:44:53;;;;;;;1.63;1.00;;;;;;;;;;5016117;28;20207;-62
2022/05/12 03:47:22;;;;;;;1.53;1.00;;;;;;;;;;5009443;28;20538;-62
2022/05/12 03:49:50;;;;;;;1.07;0.97;;;;;;;;;;5015226;28;20632;-62
2022/05/12 03:52:18;;;;;;;1.20;0.90;;;;;;;;;;5006378;28;20221;-63
2022/05/12 03:54:45;;;;;;;1.90;0.90;;;;;;;;;;5016696;28;20192;-62
2022/05/12 03:57:13;;;;;;;1.63;0.90;;;;;;;;;;5009382;28;20497;-62
2022/05/12 03:59:41;;;;;;;1.73;1.00;;;;;;;;;;5012125;28;20234;-62
2022/05/12 04:02:09;;;;;;;2.33;1.20;;;;;;;;;;5007748;28;20220;-62
2022/05/12 04:04:36;;;;;;;1.83;0.90;;;;;;;;;;5011577;28;20250;-62
2022/05/12 04:07:05;;;;;;;1.60;0.90;;;;;;;;;;5010121;28;20235;-60
2022/05/12 04:09:35;;;;;;;1.43;1.20;;;;;;;;;;5010715;28;20200;-60
2022/05/12 04:12:05;;;;;;;1.83;1.00;;;;;;;;;;5010195;28;20199;-63
2022/05/12 04:14:33;;;;;;;1.67;0.87;;;;;;;;;;5013225;28;20211;-62
2022/05/12 04:17:07;;;;;;;1.33;0.83;;;;;;;;;;5009164;28;20215;-62
2022/05/12 04:19:39;;;;;;;2.33;1.10;;;;;;;;;;5015314;28;20215;-62
2022/05/12 04:22:09;;;;;;;2.60;1.03;;;;;;;;;;5007451;28;20204;-62
2022/05/12 04:24:38;;;;;;;1.83;1.17;;;;;;;;;;5019698;28;20215;-62
2022/05/12 04:27:09;;;;;;;2.90;1.10;;;;;;;;;;5000962;28;20211;-61
2022/05/12 04:29:39;;;;;;;2.27;1.00;;;;;;;;;;5011930;28;20219;-61
2022/05/12 04:32:09;;;;;;;2.13;1.00;;;;;;;;;;4989681;28;20198;-62
2022/05/12 04:37:29;;;;;;;1.23;0.80;;;;;;;;;;5010551;28;20275;-62
2022/05/12 04:40:03;;;;;;;1.40;1.00;;;;;;;;;;5007854;28;20223;-62
2022/05/12 04:42:30;;;;;;;2.10;1.27;;;;;;;;;;5010564;28;20536;-62
2022/05/12 04:44:57;;;;;;;1.70;1.20;;;;;;;;;;5015756;28;20246;-62
2022/05/12 04:47:24;;;;;;;2.63;1.10;;;;;;;;;;5008590;28;20579;-62
2022/05/12 04:49:51;;;;;;;1.47;0.93;;;;;;;;;;5009029;28;20247;-62
2022/05/12 04:52:19;;;;;;;1.70;0.90;;;;;;;;;;5004691;28;20211;-62
2022/05/12 04:54:46;;;;;;;2.27;1.30;;;;;;;;;;5015207;28;20188;-62
2022/05/12 04:57:13;;;;;;;2.07;1.20;;;;;;;;;;5024160;28;20246;-60
2022/05/12 04:59:46;;;;;;;2.63;1.10;;;;;;;;;;5012547;28;20676;-60
2022/05/12 05:02:14;;;;;;;1.47;1.27;;;;;;;;;;5007645;28;20279;-64
2022/05/12 05:04:41;;;;;;;3.27;1.40;;;;;;;;;;5006940;28;20243;-63
2022/05/12 05:07:12;;;;;;;1.90;1.20;;;;;;;;;;5008602;28;20246;-63
2022/05/12 05:09:41;;;;;;;1.53;1.13;;;;;;;;;;5009215;28;20207;-63
2022/05/12 05:12:11;;;;;;;11.33;4.17;;;;;;;;;;5007324;28;20200;-60
2022/05/12 05:14:40;;;;;;;14.00;5.33;;;;;;;;;;5013060;28;20243;-61
2022/05/12 05:17:07;;;;;;;19.70;6.10;;;;;;;;;;5004381;28;20199;-63
2022/05/12 05:19:36;;;;;;;17.17;6.73;;;;;;;;;;5004209;28;20196;-63
2022/05/12 05:22:03;;;;;;;19.43;7.33;;;;;;;;;;4998753;28;20207;-63
2022/05/12 05:24:31;;;;;;;22.50;8.97;;;;;;;;;;5014046;28;20713;-63
2022/05/12 05:26:58;;;;;;;23.13;8.53;;;;;;;;;;5007668;28;20573;-62
2022/05/12 05:29:25;;;;;;;22.00;7.20;;;;;;;;;;4995104;28;20203;-63
2022/05/12 05:31:54;;;;;;;18.67;7.10;;;;;;;;;;5004060;28;20192;-61
2022/05/12 05:34:30;;;;;;;20.47;7.43;;;;;;;;;;5010740;28;20214;-61
2022/05/12 05:37:03;;;;;;;24.27;7.00;;;;;;;;;;5008205;28;20214;-62
2022/05/12 05:39:35;;;;;;;17.67;7.17;;;;;;;;;;5008043;28;20203;-62
2022/05/12 05:42:07;;;;;;;17.93;6.30;;;;;;;;;;5018777;28;20207;-64
2022/05/12 05:44:34;;;;;;;13.87;6.10;;;;;;;;;;5005432;28;20306;-64
2022/05/12 05:47:02;;;;;;;15.30;6.20;;;;;;;;;;5001274;28;20191;-65
2022/05/12 05:49:30;;;;;;;13.90;6.43;;;;;;;;;;5009267;28;20253;-64
2022/05/12 05:54:44;;;;;;;11.97;5.43;;;;;;;;;;5006385;28;20258;-64
2022/05/12 05:57:11;;;;;;;15.33;5.47;;;;;;;;;;4991978;28;20196;-64
2022/05/12 05:59:38;;;;;;;10.33;5.17;;;;;;;;;;5006321;28;20199;-65
2022/05/12 06:02:05;;;;;;;10.30;4.83;;;;;;;;;;4994041;28;20274;-64
2022/05/12 06:04:34;;;;;;;11.30;5.17;;;;;;;;;;4990631;28;20319;-63
2022/05/12 06:07:05;;;;;;;11.27;4.80;;;;;;;;;;4992268;28;20250;-64
2022/05/12 06:09:34;;;;;;;10.77;4.70;;;;;;;;;;4998179;28;20205;-64
2022/05/12 06:12:04;;;;;;;11.50;5.40;;;;;;;;;;4979438;28;20197;-61
2022/05/12 06:14:39;;;;;;;10.53;4.53;;;;;;;;;;4990181;28;20213;-61
2022/05/12 06:17:09;;;;;;;10.73;4.33;;;;;;;;;;4991895;28;20211;-64
2022/05/12 06:19:36;;;;;;;8.63;4.20;;;;;;;;;;4988480;28;20188;-64
2022/05/12 06:22:07;;;;;;;7.83;3.83;;;;;;;;;;4986094;28;20204;-64
2022/05/12 06:24:38;;;;;;;8.57;3.93;;;;;;;;;;4996461;28;20256;-64
2022/05/12 06:27:07;;;;;;;7.77;4.00;;;;;;;;;;4990722;28;20281;-63
2022/05/12 06:29:37;;;;;;;8.70;3.83;;;;;;;;;;4998388;28;20191;-63
2022/05/12 06:32:09;;;;;;;7.53;4.13;;;;;;;;;;4997676;28;20223;-63
2022/05/12 06:34:37;;;;;;;6.87;3.67;;;;;;;;;;5000884;28;20200;-63
2022/05/12 06:37:10;;;;;;;8.27;3.67;;;;;;;;;;4990272;28;20210;-63
2022/05/12 06:39:41;;;;;;;6.80;3.80;;;;;;;;;;4988288;28;20292;-63
2022/05/12 06:42:13;;;;;;;8.20;3.87;;;;;;;;;;4994670;28;20207;-64
2022/05/12 06:44:44;;;;;;;12.40;4.67;;;;;;;;;;5002581;28;20223;-63
2022/05/12 06:47:16;;;;;;;15.83;5.10;;;;;;;;;;4995808;28;20196;-63
2022/05/12 06:49:51;;;;;;;21.23;6.20;;;;;;;;;;4993827;28;20265;-62
2022/05/12 06:52:22;;;;;;;23.47;8.20;;;;;;;;;;5008056;28;20221;-63
2022/05/12 06:54:51;;;;;;;28.67;9.27;;;;;;;;;;5006261;28;20257;-62
2022/05/12 06:57:27;;;;;;;35.97;13.50;;;;;;;;;;4998652;28;20197;-62
2022/05/12 06:59:56;;;;;;;31.30;10.87;;;;;;;;;;5010404;28;20199;-64
2022/05/12 07:02:32;;;;;;;28.33;10.90;;;;;;;;;;5016289;28;20448;-64
2022/05/12 07:05:17;;;;;;;24.57;9.97;;;;;;;;;;4997276;28;20267;-62
2022/05/12 07:07:46;;;;;;;26.80;10.30;;;;;;;;;;4994285;28;20234;-62
2022/05/12 07:10:18;;;;;;;23.67;9.70;;;;;;;;;;5006847;28;20200;-63
2022/05/12 07:12:48;;;;;;;25.80;9.23;;;;;;;;;;5013859;28;20697;-64
2022/05/12 07:15:20;;;;;;;19.53;9.23;;;;;;;;;;4987439;28;20223;-62
2022/05/12 07:17:50;;;;;;;23.80;9.37;;;;;;;;;;5009464;28;20192;-61
2022/05/12 07:28:44;;;;;;;17.70;7.70;;;;;;;;;;5007451;28;20254;-64
2022/05/12 07:31:11;;;;;;;15.03;7.00;;;;;;;;;;5012004;28;20207;-61
2022/05/12 07:33:43;;;;;;;12.50;6.63;;;;;;;;;;5013033;28;20645;-62
2022/05/12 07:36:12;;;;;;;13.03;6.70;;;;;;;;;;5023550;28;20216;-64
2022/05/12 07:38:39;;;;;;;10.13;6.13;;;;;;;;;;5004714;28;20216;-64
2022/05/12 07:41:09;;;;;;;11.97;5.87;;;;;;;;;;5011273;28;20188;-61
2022/05/12 07:43:37;;;;;;;14.77;6.50;;;;;;;;;;5011169;28;20611;-64
2022/05/12 07:46:06;;;;;;;14.37;6.10;;;;;;;;;;5010150;28;20527;-62
2022/05/12 07:48:36;;;;;;;12.77;5.73;;;;;;;;;;5009957;28;20196;-63
2022/05/12 07:51:05;;;;;;;10.83;5.27;;;;;;;;;;5003811;28;20273;-64
2022/05/12 07:53:33;;;;;;;9.60;5.20;;;;;;;;;;4993344;28;20227;-64
2022/05/12 07:56:00;;;;;;;9.07;4.90;;;;;;;;;;4993911;28;20421;-63
2022/05/12 07:58:27;;;;;;;10.37;4.83;;;;;;;;;;5007014;28;20260;-63
2022/05/12 08:00:54;;;;;;;7.67;4.77;;;;;;;;;;5009907;28;20196;-64
2022/05/12 08:03:22;;;;;;;6.93;4.40;;;;;;;;;;5003711;28;20623;-64
2022/05/12 08:06:05;;;;;;;10.93;5.07;;;;;;;;;;5008702;28;20203;-63
2022/05/12 08:08:35;;;;;;;6.30;4.30;;;;;;;;;;5012862;28;20294;-63
2022/05/12 08:11:05;;;;;;;5.47;4.10;;;;;;;;;;4995094;28;20202;-63
2022/05/12 08:13:46;;;;;;;7.03;5.03;;;;;;;;;;5018248;28;20207;-62
2022/05/12 08:16:25;;;;;;;6.50;4.17;;;;;;;;;;4995939;28;20416;-64
2022/05/12 08:18:56;;;;;;;9.43;4.67;;;;;;;;;;5007922;28;20201;-63
2022/05/12 08:21:26;;;;;;;6.43;4.07;;;;;;;;;;5008075;28;20281;-63
2022/05/12 08:23:58;;;;;;;7.00;3.80;;;;;;;;;;5011474;28;20739;-63
2022/05/12 08:26:28;;;;;;;7.17;3.40;;;;;;;;;;5007101;28;20943;-63
2022/05/12 08:29:01;;;;;;;5.40;3.87;;;;;;;;;;5011699;28;20740;-64
2022/05/12 08:31:31;;;;;;;6.77;3.73;;;;;;;;;;5011159;28;20219;-65
2022/05/12 08:34:00;;;;;;;5.00;4.23;;;;;;;;;;4992313;28;20237;-66
2022/05/12 08:36:31;;;;;;;4.17;3.63;;;;;;;;;;5008547;28;20527;-64
2022/05/12 08:39:01;;;;;;;5.73;4.00;;;;;;;;;;5007496;28;20230;-62
2022/05/12 08:41:38;;;;;;;4.90;3.87;;;;;;;;;;5010242;28;20208;-65
2022/05/12 08:44:11;;;;;;;5.10;3.50;;;;;;;;;;5008445;28;20318;-65
2022/05/12 08:46:47;;;;;;;4.33;3.80;;;;;;;;;;5010726;28;20195;-64
2022/05/12 08:49:31;;;;;;;4.07;3.67;;;;;;;;;;5008406;28;20192;-64
2022/05/12 08:52:19;;;;;;;6.07;4.23;;;;;;;;;;5007045;28;20247;-65
2022/05/12 08:55:08;;;;;;;4.97;4.30;;;;;;;;;;5002466;28;20371;-64
2022/05/12 08:58:03;;;;;;;5.00;4.27;;;;;;;;;;5011592;28;20289;-62
2022/05/12 09:00:44;;;;;;;5.10;4.60;;;;;;;;;;4985848;28;20201;-63
2022/05/12 09:03:25;;;;;;;6.87;4.50;;;;;;;;;;5010532;28;20276;-63
2022/05/12 09:06:07;;;;;;;5.73;3.97;;;;;;;;;;4991436;28;20192;-63
2022/05/12 09:08:37;;;;;;;4.60;4.00;;;;;;;;;;5011217;28;20696;-63
2022/05/12 09:11:18;;;;;;;4.30;3.87;;;;;;;;;;4988681;28;20196;-63
2022/05/12 09:13:50;;;;;;;4.83;4.43;;;;;;;;;;5011901;28;20226;-64
2022/05/12 09:16:23;;;;;;;4.53;4.13;;;;;;;;;;4997695;28;20227;-63
2022/05/12 09:18:51;;;;;;;5.93;4.40;;;;;;;;;;5010390;28;20199;-64
2022/05/12 09:21:21;;;;;;;4.97;4.10;;;;;;;;;;5010506;28;20277;-65
2022/05/12 09:23:49;;;;;;;6.53;4.00;;;;;;;;;;5012363;28;20212;-64
2022/05/12 09:26:33;;;;;;;4.63;4.00;;;;;;;;;;5006333;28;20771;-64
2022/05/12 09:29:11;;;;;;;5.97;4.50;;;;;;;;;;5009121;28;20263;-64
2022/05/12 09:31:43;;;;;;;7.10;4.20;;;;;;;;;;5008425;28;20203;-64
2022/05/12 09:34:21;;;;;;;5.00;4.53;;;;;;;;;;5009472;28;20203;-65
2022/05/12 09:36:50;;;;;;;5.17;4.67;;;;;;;;;;5004193;28;20727;-65
2022/05/12 09:39:38;;;;;;;4.40;4.00;;;;;;;;;;4991485;28;20207;-65
2022/05/12 09:42:27;;;;;;;5.43;4.93;;;;;;;;;;5003057;28;20219;-64
2022/05/12 09:44:58;;;;;;;5.63;5.13;;;;;;;;;;5000637;28;20555;-65
2022/05/12 09:47:34;;;;;;;5.40;4.90;;;;;;;;;;5004108;28;20218;-65
2022/05/12 09:50:21;;;;;;;4.83;4.43;;;;;;;;;;5007849;28;20192;-64
2022/05/12 09:53:00;;;;;;;6.97;5.53;;;;;;;;;;5015230;28;20203;-63
2022/05/12 09:55:35;;;;;;;6.27;5.77;;;;;;;;;;5003014;28;20219;-62
2022/05/12 09:58:06;;;;;;;7.60;6.77;;;;;;;;;;5007743;28;20211;-60
2022/05/12 10:00:41;;;;;;;8.63;6.63;;;;;;;;;;5007316;28;20200;-63
2022/05/12 10:09:12;;;;;;;5.93;5.33;;;;;;;;;;5008164;28;20258;-61
2022/05/12 10:12:06;;;;;;;8.10;5.43;;;;;;;;;;5003793;28;20433;-62
2022/05/12 10:14:44;;;;;;;6.73;5.83;;;;;;;;;;5007687;28;20211;-62
2022/05/12 10:17:38;;;;;;;5.47;4.97;;;;;;;;;;4996364;28;20215;-60
2022/05/12 10:20:09;;;;;;;4.70;4.30;;;;;;;;;;4966254;28;20219;-61
2022/05/12 10:22:55;;;;;;;5.77;4.40;;;;;;;;;;5002501;28;20212;-60
2022/05/12 10:25:47;;;;;;;7.53;4.60;;;;;;;;;;4992914;28;20214;-62
2022/05/12 10:28:28;;;;;;;6.40;4.80;;;;;;;;;;4987084;28;20255;-63
2022/05/12 10:31:17;;;;;;;7.40;4.80;;;;;;;;;;4997730;28;20265;-65
2022/05/12 10:34:04;;;;;;;4.53;4.00;;;;;;;;;;5003860;28;20247;-65
2022/05/12 10:36:50;;;;;;;5.80;4.63;;;;;;;;;;5000036;28;20396;-63
2022/05/12 10:39:46;;;;;;;4.90;4.40;;;;;;;;;;4985743;28;20309;-67
2022/05/12 10:42:29;;;;;;;6.43;4.90;;;;;;;;;;4972677;28;20236;-65
2022/05/12 10:45:07;;;;;;;5.53;4.70;;;;;;;;;;5005939;28;20207;-65
2022/05/12 10:47:46;;;;;;;4.50;3.90;;;;;;;;;;4992771;28;20614;-66
2022/05/12 10:50:37;;;;;;;7.53;4.60;;;;;;;;;;5007509;28;20188;-64
2022/05/12 10:53:23;;;;;;;5.00;4.50;;;;;;;;;;5016712;28;20206;-64
2022/05/12 10:56:00;;;;;;;4.37;3.77;;;;;;;;;;5002288;28;20210;-65
2022/05/12 10:58:34;;;;;;;5.50;3.47;;;;;;;;;;4997751;28;20366;-65
2022/05/12 11:01:01;;;;;;;4.20;3.80;;;;;;;;;;5004536;28;20700;-65
2022/05/12 11:03:30;;;;;;;4.37;3.57;;;;;;;;;;5006482;28;20689;-65
2022/05/12 11:06:00;;;;;;;4.20;3.30;;;;;;;;;;5006511;28;20220;-65
2022/05/12 11:08:32;;;;;;;5.00;3.40;;;;;;;;;;5006195;28;20226;-66
2022/05/12 11:11:22;;;;;;;4.77;3.33;;;;;;;;;;5007731;28;20274;-65
2022/05/12 11:14:04;;;;;;;4.43;3.20;;;;;;;;;;5007000;28;20195;-64
2022/05/12 11:16:36;;;;;;;4.63;3.40;;;;;;;;;;4998497;28;20212;-66
2022/05/12 11:19:06;;;;;;;4.40;3.10;;;;;;;;;;4997681;28;20192;-66
2022/05/12 11:21:37;;;;;;;5.47;3.20;;;;;;;;;;4998880;28;20549;-64
2022/05/12 11:24:04;;;;;;;4.90;3.17;;;;;;;;;;5008171;28;20227;-65
2022/05/12 11:26:41;;;;;;;4.37;3.30;;;;;;;;;;5002932;28;20203;-63
2022/05/12 11:29:48;;;;;;;4.40;3.20;;;;;;;;;;5006240;28;20200;-66
2022/05/12 11:32:28;;;;;;;4.43;3.10;;;;;;;;;;5005715;28;20192;-66
2022/05/12 11:35:05;;;;;;;4.10;3.17;;;;;;;;;;5020311;28;20214;-66
2022/05/12 11:37:53;;;;;;;3.50;2.67;;;;;;;;;;5005213;28;20203;-66
2022/05/12 11:40:44;;;;;;;4.13;3.00;;;;;;;;;;5010464;28;20212;-65
2022/05/12 11:46:39;;;;;;;5.23;2.93;;;;;;;;;;5003459;28;20207;-65
2022/05/12 11:49:23;;;;;;;3.27;2.40;;;;;;;;;;5010006;28;20202;-65
2022/05/12 11:52:11;;;;;;;3.97;2.27;;;;;;;;;;5007255;28;20215;-65
2022/05/12 11:54:40;;;;;;;2.17;1.83;;;;;;;;;;5009080;28;20203;-66
2022/05/12 11:57:28;;;;;;;4.23;2.10;;;;;;;;;;5008759;28;20192;-66
2022/05/12 12:00:11;;;;;;;3.13;2.10;;;;;;;;;;5007215;28;20211;-65
2022/05/12 12:02:45;;;;;;;3.33;2.10;;;;;;;;;;5004114;28;20216;-65
2022/05/12 12:05:21;;;;;;;2.77;2.00;;;;;;;;;;5000348;28;20223;-65
2022/05/12 12:07:49;;;;;;;2.17;1.70;;;;;;;;;;5007278;28;20235;-65
2022/05/12 12:10:25;;;;;;;3.73;2.10;;;;;;;;;;5011257;28;20259;-65
2022/05/12 12:12:52;;;;;;;6.17;2.00;;;;;;;;;;5007225;28;20188;-66
2022/05/12 12:15:30;;;;;;;3.07;1.93;;;;;;;;;;4990510;28;20287;-65
2022/05/12 12:17:58;;;;;;;4.33;2.13;;;;;;;;;;5006950;28;20204;-66
2022/05/12 12:20:36;;;;;;;2.23;1.77;;;;;;;;;;5008215;28;20200;-66
2022/05/12 12:23:24;;;;;;;3.17;1.90;;;;;;;;;;5015221;28;20214;-66
2022/05/12 12:26:06;;;;;;;4.03;1.93;;;;;;;;;;5015961;28;20266;-65
2022/05/12 12:28:53;;;;;;;3.13;2.20;;;;;;;;;;5005616;28;20200;-66
2022/05/12 12:31:43;;;;;;;5.30;1.70;;;;;;;;;;5014638;28;20778;-67
2022/05/12 12:34:48;;;;;;;5.33;1.60;;;;;;;;;;5008862;28;20240;-66
2022/05/12 12:37:40;;;;;;;4.50;1.77;;;;;;;;;;5001250;28;20269;-65
2022/05/12 12:40:41;;;;;;;4.67;1.70;;;;;;;;;;5000406;28;20561;-66
2022/05/12 12:43:17;;;;;;;4.17;1.90;;;;;;;;;;5014252;28;20218;-66
2022/05/12 12:45:50;;;;;;;4.23;1.50;;;;;;;;;;5000065;28;20195;-68
2022/05/12 12:48:25;;;;;;;3.77;1.70;;;;;;;;;;5003080;28;20559;-66
2022/05/12 12:50:57;;;;;;;4.57;1.80;;;;;;;;;;5011462;28;20223;-67
2022/05/12 12:56:36;;;;;;;2.77;1.83;;;;;;;;;;5015471;28;20192;-66
2022/05/12 12:59:17;;;;;;;2.77;1.33;;;;;;;;;;5012615;28;20214;-65
2022/05/12 13:01:51;;;;;;;3.90;1.40;;;;;;;;;;5007962;28;20702;-66
2022/05/12 13:04:26;;;;;;;2.77;1.57;;;;;;;;;;4996649;28;20302;-67
2022/05/12 13:06:56;;;;;;;2.30;1.53;;;;;;;;;;5001137;28;20630;-65
2022/05/12 13:09:27;;;;;;;1.70;1.50;;;;;;;;;;4999538;28;20199;-67
2022/05/12 13:12:13;;;;;;;2.20;1.43;;;;;;;;;;5016909;28;20672;-66
2022/05/12 13:14:53;;;;;;;2.93;1.50;;;;;;;;;;5002523;28;20208;-66
2022/05/12 13:17:24;;;;;;;2.77;1.30;;;;;;;;;;5007983;28;20204;-66
2022/05/12 13:19:56;;;;;;;2.47;1.37;;;;;;;;;;5007381;28;20281;-66
2022/05/12 13:22:30;;;;;;;3.60;1.60;;;;;;;;;;4999567;28;20296;-66
2022/05/12 13:25:02;;;;;;;3.67;1.37;;;;;;;;;;4993379;28;20216;-67
2022/05/12 13:27:35;;;;;;;3.03;1.37;;;;;;;;;;4989251;28;20223;-67
2022/05/12 13:30:14;;;;;;;2.27;1.10;;;;;;;;;;4976113;28;20203;-68
2022/05/12 13:32:50;;;;;;;2.63;1.43;;;;;;;;;;5011299;28;20564;-67
2022/05/12 13:35:26;;;;;;;5.67;1.47;;;;;;;;;;4995200;28;20198;-66
2022/05/12 13:38:03;;;;;;;3.30;1.40;;;;;;;;;;4993224;28;20184;-65
2022/05/12 13:41:03;;;;;;;2.63;1.60;;;;;;;;;;5015884;28;20204;-66
2022/05/12 13:43:53;;;;;;;3.43;1.50;;;;;;;;;;5006064;28;20212;-66
2022/05/12 13:46:23;;;;;;;3.93;1.10;;;;;;;;;;5015144;28;20236;-64
2022/05/12 13:49:13;;;;;;;2.50;1.37;;;;;;;;;;4999166;28;20238;-64
2022/05/12 13:51:51;;;;;;;2.33;1.57;;;;;;;;;;5011351;28;20234;-68
2022/05/12 13:54:36;;;;;;;3.27;1.40;;;;;;;;;;5008542;28;20195;-69
2022/05/12 13:57:24;;;;;;;2.73;1.07;;;;;;;;;;5024625;28;20195;-68
2022/05/12 13:59:58;;;;;;;2.27;1.40;;;;;;;;;;5010761;28;20253;-68
2022/05/12 14:02:50;;;;;;;3.93;1.60;;;;;;;;;;5018203;28;20196;-67
2022/05/12 14:05:30;;;;;;;6.93;1.70;;;;;;;;;;5020678;28;20213;-66
2022/05/12 14:08:26;;;;;;;4.73;1.30;;;;;;;;;;4998889;28;20271;-65
2022/05/12 14:11:13;;;;;;;3.00;1.43;;;;;;;;;;5013115;28;20187;-66
2022/05/12 14:19:39;;;;;;;3.50;1.37;;;;;;;;;;4999066;28;20195;-68
2022/05/12 14:22:07;;;;;;;1.60;1.30;;;;;;;;;;5007267;28;20203;-66
2022/05/12 14:24:37;;;;;;;2.63;1.17;;;;;;;;;;5009030;28;20208;-65
2022/05/12 14:27:05;;;;;;;2.90;1.50;;;;;;;;;;5009348;28;20238;-63
2022/05/12 14:29:32;;;;;;;3.33;1.10;;;;;;;;;;4999918;28;20208;-62
2022/05/12 14:31:59;;;;;;;1.57;1.00;;;;;;;;;;4983436;28;20626;-63
2022/05/12 14:34:27;;;;;;;5.37;1.73;;;;;;;;;;4994907;28;20269;-62
2022/05/12 14:36:59;;;;;;;2.37;1.20;;;;;;;;;;5004053;28;20204;-62
2022/05/12 14:39:27;;;;;;;1.93;1.20;;;;;;;;;;4983579;28;20216;-63
2022/05/12 14:41:55;;;;;;;1.77;1.10;;;;;;;;;;5003813;28;20211;-62
2022/05/12 14:44:23;;;;;;;2.30;1.23;;;;;;;;;;4998781;28;20207;-63
2022/05/12 14:46:51;;;;;;;3.30;1.40;;;;;;;;;;4987748;28;20212;-62
2022/05/12 14:49:23;;;;;;;2.93;1.30;;;;;;;;;;4990228;28;20223;-62
2022/05/12 14:51:52;;;;;;;2.93;1.50;;;;;;;;;;4996273;28;20212;-64
2022/05/12 14:54:24;;;;;;;3.60;1.43;;;;;;;;;;5009719;28;20200;-61
2022/05/12 14:56:56;;;;;;;2.37;1.13;;;;;;;;;;4998302;28;20214;-61
2022/05/12 14:59:24;;;;;;;1.70;1.20;;;;;;;;;;4988939;28;20199;-61
2022/05/12 15:01:55;;;;;;;7.10;1.40;;;;;;;;;;5006720;28;20279;-64
2022/05/12 15:04:29;;;;;;;2.53;1.23;;;;;;;;;;5006225;28;20204;-61
2022/05/12 15:06:59;;;;;;;4.23;1.60;;;;;;;;;;5017801;28;20225;-64
2022/05/12 15:09:29;;;;;;;3.17;1.10;;;;;;;;;;5011736;28;20192;-63
2022/05/12 15:12:00;;;;;;;3.07;1.30;;;;;;;;;;5002907;28;20199;-64
2022/05/12 15:14:29;;;;;;;2.07;1.23;;;;;;;;;;5015742;28;20712;-62
2022/05/12 15:16:58;;;;;;;2.53;1.40;;;;;;;;;;4999645;28;20215;-64
2022/05/12 15:19:30;;;;;;;3.23;1.53;;;;;;;;;;4999356;28;20607;-64
2022/05/12 15:22:02;;;;;;;4.40;1.53;;;;;;;;;;5004733;28;20215;-65
2022/05/12 15:24:32;;;;;;;4.20;1.77;;;;;;;;;;4995326;28;20224;-65
2022/05/12 15:27:04;;;;;;;3.57;1.73;;;;;;;;;;5002297;28;20240;-64
2022/05/12 15:29:36;;;;;;;2.83;1.50;;;;;;;;;;5001542;28;20235;-59
2022/05/12 15:32:11;;;;;;;2.67;1.60;;;;;;;;;;5011067;28;20194;-62
2022/05/12 15:34:39;;;;;;;4.93;1.60;;;;;;;;;;5008034;28;20606;-60
2022/05/12 15:37:10;;;;;;;7.63;2.00;;;;;;;;;;5015889;28;20196;-60
2022/05/12 15:39:39;;;;;;;2.87;1.70;;;;;;;;;;4990667;28;20226;-61
2022/05/12 15:42:11;;;;;;;3.50;1.80;;;;;;;;;;5013471;28;20191;-64
2022/05/12 15:44:42;;;;;;;4.47;1.83;;;;;;;;;;4992244;28;20212;-64
2022/05/12 15:47:16;;;;;;;2.70;1.50;;;;;;;;;;5013884;28;20222;-63